createdAt,value
2022-09-22T00:00:22.265Z,4.00
2022-09-22T00:05:48.191Z,4.40
2022-09-22T00:11:08.520Z,4.70
2022-09-22T00:16:15.894Z,4.60
2022-09-22T00:21:23.921Z,4.60
2022-09-22T00:26:31.245Z,4.00
2022-09-22T00:31:39.215Z,4.40
2022-09-22T00:36:45.460Z,4.50
2022-09-22T00:41:52.550Z,4.50
2022-09-22T00:47:01.439Z,4.00
2022-09-22T00:52:08.635Z,4.60
2022-09-22T00:57:19.321Z,4.10
2022-09-22T01:02:25.660Z,4.60
2022-09-22T01:07:32.373Z,4.30
2022-09-22T01:12:42.497Z,4.00
2022-09-22T01:17:57.373Z,4.50
2022-09-22T01:23:40.468Z,5.00
2022-09-22T01:29:13.147Z,3.90
2022-09-22T01:34:26.564Z,4.20
2022-09-22T01:39:39.115Z,4.00
2022-09-22T01:44:51.432Z,4.60
2022-09-22T01:50:03.220Z,4.40
2022-09-22T01:55:13.488Z,4.40
2022-09-22T02:00:19.821Z,4.00
2022-09-22T02:05:32.704Z,4.90
2022-09-22T02:10:41.828Z,4.20
2022-09-22T02:16:03.371Z,4.70
2022-09-22T02:21:10.644Z,6.00
2022-09-22T02:26:23.685Z,5.00
2022-09-22T02:31:33.239Z,5.20
2022-09-22T02:36:51.553Z,5.60
2022-09-22T02:42:12.007Z,6.30
2022-09-22T02:47:24.794Z,6.40
2022-09-22T02:52:30.582Z,5.90
2022-09-22T02:57:36.414Z,7.00
2022-09-22T03:02:42.202Z,7.20
2022-09-22T03:07:48.280Z,7.10
2022-09-22T03:13:15.113Z,7.20
2022-09-22T03:18:19.943Z,7.80
2022-09-22T03:23:26.074Z,7.50
2022-09-22T03:28:31.881Z,7.60
2022-09-22T03:33:38.078Z,7.40
2022-09-22T03:38:44.207Z,7.80
2022-09-22T03:43:50.873Z,8.10
2022-09-22T03:48:57.119Z,7.60
2022-09-22T03:54:03.015Z,6.80
2022-09-22T03:59:10.511Z,7.00
2022-09-22T04:04:17.212Z,7.20
2022-09-22T04:09:23.514Z,7.20
2022-09-22T04:14:30.067Z,5.60
2022-09-22T04:19:36.232Z,5.60
2022-09-22T04:24:42.229Z,6.20
2022-09-22T04:29:48.228Z,6.30
2022-09-22T04:34:54.063Z,5.40
2022-09-22T04:40:00.168Z,5.80
2022-09-22T04:45:07.486Z,6.20
2022-09-22T04:50:13.742Z,6.10
2022-09-22T04:55:21.147Z,6.20
2022-09-22T05:00:29.148Z,6.00
2022-09-22T05:05:35.160Z,5.70
2022-09-22T05:10:41.546Z,5.90
2022-09-22T05:15:47.872Z,5.20
2022-09-22T05:20:53.725Z,5.70
2022-09-22T05:26:00.166Z,5.20
2022-09-22T05:31:06.555Z,5.10
2022-09-22T05:36:13.479Z,5.80
2022-09-22T05:41:19.456Z,6.50
2022-09-22T05:46:25.489Z,5.60
2022-09-22T05:51:31.311Z,6.00
2022-09-22T05:56:37.204Z,5.80
2022-09-22T06:01:43.201Z,6.40
2022-09-22T06:06:50.087Z,6.30
2022-09-22T06:11:55.916Z,6.30
2022-09-22T06:17:01.797Z,6.50
2022-09-22T06:22:08.682Z,6.60
2022-09-22T06:27:14.658Z,5.80
2022-09-22T06:32:20.455Z,6.80
2022-09-22T06:37:26.182Z,6.60
2022-09-22T06:42:32.260Z,6.60
2022-09-22T06:47:38.616Z,6.30
2022-09-22T06:52:44.615Z,6.80
2022-09-22T06:57:51.509Z,6.10
2022-09-22T07:03:06.251Z,6.60
2022-09-22T07:08:12.222Z,6.50
2022-09-22T07:13:18.577Z,6.20
2022-09-22T07:18:25.110Z,6.40
2022-09-22T07:23:31.282Z,6.60
2022-09-22T07:28:38.335Z,5.30
2022-09-22T07:33:46.435Z,4.70
2022-09-22T07:38:55.839Z,4.80
2022-09-22T07:44:21.594Z,4.60
2022-09-22T07:49:27.835Z,4.40
2022-09-22T07:54:36.845Z,4.50
2022-09-22T07:59:42.756Z,4.70
2022-09-22T08:04:48.738Z,3.70
2022-09-22T08:09:54.484Z,3.40
2022-09-22T08:15:00.339Z,3.80
2022-09-22T08:20:08.998Z,3.40
2022-09-22T08:25:15.710Z,3.10
2022-09-22T08:30:21.469Z,2.80
2022-09-22T08:35:27.878Z,2.50
2022-09-22T08:40:33.638Z,2.10
2022-09-22T08:45:44.299Z,2.00
2022-09-22T08:51:11.233Z,1.40
2022-09-22T08:56:29.529Z,1.50
2022-09-22T09:01:52.411Z,1.50
2022-09-22T09:07:07.810Z,1.10
2022-09-22T09:12:30.320Z,1.00
2022-09-22T09:17:38.865Z,1.50
2022-09-22T09:22:51.151Z,1.00
2022-09-22T09:28:01.270Z,0.80
2022-09-22T09:33:17.572Z,0.90
2022-09-22T09:38:29.660Z,1.80
2022-09-22T09:43:36.983Z,1.30
2022-09-22T09:48:54.267Z,1.10
2022-09-22T09:54:04.044Z,1.20
2022-09-22T09:59:32.684Z,1.20
2022-09-22T10:04:39.419Z,1.10
2022-09-22T10:09:48.715Z,0.80
2022-09-22T10:14:57.773Z,0.80
2022-09-22T10:20:24.428Z,0.90
2022-09-22T10:25:32.023Z,1.00
2022-09-22T10:30:38.690Z,1.10
2022-09-22T10:35:47.656Z,0.80
2022-09-22T10:41:04.483Z,0.90
2022-09-22T10:46:44.941Z,1.90
2022-09-22T10:52:09.279Z,0.90
2022-09-22T10:57:26.791Z,1.00
2022-09-22T11:02:59.969Z,1.00
2022-09-22T11:08:29.953Z,0.70
2022-09-22T11:13:46.143Z,1.10
2022-09-22T11:19:09.788Z,1.10
2022-09-22T11:24:32.724Z,1.00
2022-09-22T11:30:11.363Z,1.00
2022-09-22T11:35:35.391Z,1.20
2022-09-22T11:41:00.249Z,1.20
2022-09-22T11:46:10.863Z,1.30
2022-09-22T11:56:39.739Z,1.20
2022-09-22T12:01:48.639Z,1.30
2022-09-22T12:06:56.998Z,1.20
2022-09-22T12:12:04.897Z,1.90
2022-09-22T12:17:20.110Z,2.10
2022-09-22T12:22:33.969Z,1.90
2022-09-22T12:27:40.312Z,4.90
2022-09-22T12:32:49.299Z,5.60
2022-09-22T12:37:56.931Z,21.80
2022-09-22T12:43:03.151Z,3.00
2022-09-22T12:48:14.777Z,2.00
2022-09-22T12:53:28.824Z,2.70
2022-09-22T12:58:44.491Z,2.00
2022-09-22T13:03:52.649Z,2.80
2022-09-22T13:09:20.548Z,1.80
2022-09-22T13:15:00.104Z,1.70
2022-09-22T13:20:16.098Z,1.90
2022-09-22T13:25:25.366Z,2.00
2022-09-22T13:30:32.374Z,1.70
2022-09-22T13:35:40.796Z,2.90
2022-09-22T13:40:52.848Z,2.10
2022-09-22T13:46:01.561Z,2.50
2022-09-22T13:51:09.594Z,2.50
2022-09-22T13:56:21.756Z,2.10
2022-09-22T14:01:29.781Z,2.40
2022-09-22T14:06:36.929Z,2.10
2022-09-22T14:11:43.303Z,1.90
2022-09-22T14:16:53.453Z,2.10
2022-09-22T14:22:01.508Z,1.80
2022-09-22T14:27:17.799Z,1.60
2022-09-22T14:32:30.574Z,1.80
2022-09-22T14:37:41.259Z,2.40
2022-09-22T14:42:58.437Z,2.50
2022-09-22T14:48:19.286Z,1.90
2022-09-22T14:53:28.005Z,2.10
2022-09-22T14:58:40.416Z,1.90
2022-09-22T15:03:56.837Z,1.80
2022-09-22T15:09:05.031Z,1.90
2022-09-22T15:14:27.311Z,2.10
2022-09-22T15:19:35.639Z,2.70
2022-09-22T15:24:41.618Z,1.80
2022-09-22T15:29:49.648Z,2.50
2022-09-22T15:34:56.112Z,1.80
2022-09-22T15:40:06.479Z,1.90
2022-09-22T15:45:16.067Z,2.70
2022-09-22T15:50:25.750Z,3.50
2022-09-22T15:55:33.138Z,2.00
2022-09-22T16:00:39.518Z,2.50
2022-09-22T16:05:45.950Z,2.00
2022-09-22T16:10:52.061Z,2.00
2022-09-22T16:15:58.011Z,2.70
2022-09-22T16:21:16.418Z,1.90
2022-09-22T16:26:22.903Z,2.20
2022-09-22T16:31:29.313Z,2.50
2022-09-22T16:36:39.954Z,2.70
2022-09-22T16:41:47.087Z,2.90
2022-09-22T16:46:53.785Z,3.20
2022-09-22T16:51:59.999Z,4.60
2022-09-22T16:57:06.230Z,4.70
2022-09-22T17:02:12.326Z,4.10
2022-09-22T17:07:18.234Z,5.00
2022-09-22T17:12:29.214Z,4.60
2022-09-22T17:17:36.675Z,8.20
2022-09-22T17:22:42.392Z,7.90
2022-09-22T17:27:48.221Z,7.30
2022-09-22T17:32:54.278Z,9.00
2022-09-22T17:38:00.278Z,9.90
2022-09-22T17:43:06.604Z,10.20
2022-09-22T17:48:31.655Z,10.70
2022-09-22T17:53:56.304Z,9.60
2022-09-22T17:59:02.246Z,9.70
2022-09-22T18:04:08.046Z,8.00
2022-09-22T18:09:14.068Z,7.70
2022-09-22T18:14:19.796Z,6.90
2022-09-22T18:19:27.743Z,7.10
2022-09-22T18:24:33.908Z,7.90
2022-09-22T18:29:39.616Z,7.60
2022-09-22T18:34:45.643Z,7.40
2022-09-22T18:39:51.578Z,7.30
2022-09-22T18:44:57.488Z,7.70
2022-09-22T18:50:04.080Z,7.60
2022-09-22T18:55:14.255Z,7.80
2022-09-22T19:00:21.612Z,9.70
2022-09-22T19:05:28.480Z,9.80
2022-09-22T19:10:34.254Z,8.60
2022-09-22T19:15:42.305Z,8.20
2022-09-22T19:20:48.120Z,8.90
2022-09-22T19:25:54.125Z,9.20
2022-09-22T19:31:00.165Z,10.30
2022-09-22T19:36:07.317Z,8.40
2022-09-22T19:41:13.698Z,8.20
2022-09-22T19:46:19.768Z,8.60
2022-09-22T19:51:25.904Z,9.00
2022-09-22T19:56:31.824Z,8.90
2022-09-22T20:01:40.410Z,7.40
2022-09-22T20:06:48.735Z,8.00
2022-09-22T20:11:54.906Z,7.70
2022-09-22T20:17:03.240Z,8.50
2022-09-22T20:22:25.642Z,7.80
2022-09-22T20:27:33.784Z,7.70
2022-09-22T20:32:40.527Z,13.40
2022-09-22T20:37:46.886Z,12.20
2022-09-22T20:42:54.433Z,12.30
2022-09-22T20:48:00.686Z,11.10
2022-09-22T20:53:07.286Z,9.90
2022-09-22T20:58:13.413Z,9.10
2022-09-22T21:03:19.558Z,7.10
2022-09-22T21:08:44.461Z,6.10
2022-09-22T21:13:54.715Z,6.10
2022-09-22T21:19:03.883Z,5.70
2022-09-22T21:24:11.176Z,5.30
2022-09-22T21:29:17.239Z,4.60
2022-09-22T21:34:23.357Z,5.00
2022-09-22T21:39:29.453Z,5.30
2022-09-22T21:44:35.339Z,5.80
2022-09-22T21:49:41.133Z,5.20
2022-09-22T21:54:46.802Z,5.30
2022-09-22T21:59:56.105Z,5.50
2022-09-22T22:05:02.567Z,4.90
2022-09-22T22:10:11.092Z,5.30
2022-09-22T22:15:17.227Z,4.60
2022-09-22T22:20:23.528Z,5.00
2022-09-22T22:25:29.221Z,5.70
2022-09-22T22:30:39.596Z,5.80
2022-09-22T22:35:53.424Z,5.10
2022-09-22T22:41:03.962Z,5.80
2022-09-22T22:46:11.744Z,5.50
2022-09-22T22:51:22.765Z,5.30
2022-09-22T22:56:31.954Z,5.10
2022-09-22T23:01:37.846Z,6.80
2022-09-22T23:06:44.558Z,6.50
2022-09-22T23:11:53.581Z,7.00
2022-09-22T23:16:59.463Z,7.00
2022-09-22T23:22:05.777Z,7.00
2022-09-22T23:27:11.594Z,8.90
2022-09-22T23:32:17.537Z,8.60
2022-09-22T23:37:25.041Z,8.30
2022-09-22T23:42:30.668Z,8.40
2022-09-22T23:47:36.400Z,8.30
2022-09-22T23:52:42.107Z,7.90
2022-09-22T23:57:47.818Z,9.00
